Time;durP1;ratioP1;P1;durP2;ratioP2;P2;SDS_P1;SDS_P2;PMS_P1;PMS_P2;Temp;Humidity;BMP_temperature;BMP_pressure;BME280_temperature;BME280_humidity;BME280_pressure;Samples;Min_cycle;Max_cycle;Signal;HPM_P1;HPM_P2
2023/07/31 00:00:02;;;;;;;;;;;;;;;;;;5325578;28;19991;-75
2023/07/31 00:02:33;;;;;;;;;;;;;;;;;;5324218;28;20085;-76
2023/07/31 00:05:04;;;;;;;;;;;;;;;;;;5325573;28;19957;-75
2023/07/31 00:07:35;;;;;;;;;;;;;;;;;;5324766;28;20378;-75
2023/07/31 00:10:06;;;;;;;;;;;;;;;;;;5324510;28;19905;-75
2023/07/31 00:12:37;;;;;;;;;;;;;;;;;;5324725;28;20404;-75
2023/07/31 00:15:09;;;;;;;;;;;;;;;;;;5325282;28;19912;-75
2023/07/31 00:17:40;;;;;;;;;;;;;;;;;;5323702;28;20039;-75
2023/07/31 00:20:11;;;;;;;;;;;;;;;;;;5325065;28;20300;-75
2023/07/31 00:22:42;;;;;;;;;;;;;;;;;;5323534;28;19903;-75
2023/07/31 00:25:13;;;;;;;;;;;;;;;;;;5324597;28;20406;-75
2023/07/31 00:27:45;;;;;;;;;;;;;;;;;;5324235;28;19904;-75
2023/07/31 00:30:17;;;;;;;;;;;;;;;;;;5324360;28;19911;-75
2023/07/31 00:32:48;;;;;;;;;;;;;;;;;;5323937;28;19916;-75
2023/07/31 00:35:19;;;;;;;;;;;;;;;;;;5325072;28;19911;-75
2023/07/31 00:37:50;;;;;;;;;;;;;;;;;;5323307;28;20034;-75
2023/07/31 00:40:21;;;;;;;;;;;;;;;;;;5324921;28;19903;-75
2023/07/31 00:42:52;;;;;;;;;;;;;;;;;;5324057;28;19951;-75
2023/07/31 00:45:23;;;;;;;;;;;;;;;;;;5323692;28;20293;-76
2023/07/31 00:47:54;;;;;;;;;;;;;;;;;;5324539;28;19904;-73
2023/07/31 00:50:25;;;;;;;;;;;;;;;;;;5324240;28;19907;-76
2023/07/31 00:52:56;;;;;;;;;;;;;;;;;;5323539;28;20442;-75
2023/07/31 00:55:28;;;;;;;;;;;;;;;;;;5324455;28;19908;-75
2023/07/31 00:57:59;;;;;;;;;;;;;;;;;;5323573;28;20679;-75
2023/07/31 01:00:30;;;;;;;;;;;;;;;;;;5323933;28;19914;-75
2023/07/31 01:03:01;;;;;;;;;;;;;;;;;;5323833;28;19910;-75
2023/07/31 01:05:32;;;;;;;;;;;;;;;;;;5323119;28;19990;-75
2023/07/31 01:08:03;;;;;;;;;;;;;;;;;;5324533;28;19904;-75
2023/07/31 01:10:34;;;;;;;;;;;;;;;;;;5323798;28;19911;-75
2023/07/31 01:13:05;;;;;;;;;;;;;;;;;;5323735;28;19966;-75
2023/07/31 01:15:37;;;;;;;;;;;;;;;;;;5323755;28;19903;-76
2023/07/31 01:18:08;;;;;;;;;;;;;;;;;;5324573;28;20297;-75
2023/07/31 01:20:39;;;;;;;;;;;;;;;;;;5323031;28;20265;-76
2023/07/31 01:23:10;;;;;;;;;;;;;;;;;;5324256;28;19981;-75
2023/07/31 01:25:41;;;;;;;;;;;;;;;;;;5323939;28;19904;-76
2023/07/31 01:28:12;;;;;;;;;;;;;;;;;;5323503;28;19904;-75
2023/07/31 01:30:43;;;;;;;;;;;;;;;;;;5323891;28;19931;-76
2023/07/31 01:33:14;;;;;;;;;;;;;;;;;;5323135;28;19922;-74
2023/07/31 01:35:46;;;;;;;;;;;;;;;;;;5324424;28;19948;-73
2023/07/31 01:38:17;;;;;;;;;;;;;;;;;;5328448;28;19944;-74
2023/07/31 01:40:48;;;;;;;;;;;;;;;;;;5326871;28;19904;-75
2023/07/31 01:43:19;;;;;;;;;;;;;;;;;;5328160;28;19904;-75
2023/07/31 01:45:50;;;;;;;;;;;;;;;;;;5327669;28;20293;-74
2023/07/31 01:48:21;;;;;;;;;;;;;;;;;;5327463;28;19903;-74
2023/07/31 01:50:53;;;;;;;;;;;;;;;;;;5327683;28;19900;-74
2023/07/31 01:53:24;;;;;;;;;;;;;;;;;;5327656;28;19919;-73
2023/07/31 01:55:55;;;;;;;;;;;;;;;;;;5327048;28;19904;-74
2023/07/31 01:58:26;;;;;;;;;;;;;;;;;;5327526;28;19911;-74
2023/07/31 02:00:57;;;;;;;;;;;;;;;;;;5327325;28;19903;-74
2023/07/31 02:03:28;;;;;;;;;;;;;;;;;;5327468;28;20354;-74
2023/07/31 02:05:59;;;;;;;;;;;;;;;;;;5327436;28;20005;-74
2023/07/31 02:08:30;;;;;;;;;;;;;;;;;;5326290;28;19910;-74
2023/07/31 02:11:01;;;;;;;;;;;;;;;;;;5328016;28;20342;-74
2023/07/31 02:13:32;;;;;;;;;;;;;;;;;;5326893;28;19911;-75
2023/07/31 02:16:04;;;;;;;;;;;;;;;;;;5326831;28;19926;-74
2023/07/31 02:18:35;;;;;;;;;;;;;;;;;;5326976;28;19910;-75
2023/07/31 02:21:06;;;;;;;;;;;;;;;;;;5327313;28;20251;-74
2023/07/31 02:23:37;;;;;;;;;;;;;;;;;;5326240;28;20151;-74
2023/07/31 02:26:08;;;;;;;;;;;;;;;;;;5327254;28;20002;-74
2023/07/31 02:28:42;;;;;;;;;;;;;;;;;;5326730;28;19907;-74
2023/07/31 02:31:13;;;;;;;;;;;;;;;;;;5326552;28;19942;-74
2023/07/31 02:33:44;;;;;;;;;;;;;;;;;;5326206;28;19962;-74
2023/07/31 02:36:15;;;;;;;;;;;;;;;;;;5326620;28;19943;-74
2023/07/31 02:38:47;;;;;;;;;;;;;;;;;;5326544;28;20324;-74
2023/07/31 02:41:18;;;;;;;;;;;;;;;;;;5327034;28;19904;-75
2023/07/31 02:43:49;;;;;;;;;;;;;;;;;;5325621;28;19926;-75
2023/07/31 02:46:24;;;;;;;;;;;;;;;;;;5326971;28;20334;-74
2023/07/31 02:48:55;;;;;;;;;;;;;;;;;;5326255;28;20366;-75
2023/07/31 02:51:26;;;;;;;;;;;;;;;;;;5325620;28;19947;-75
2023/07/31 02:53:57;;;;;;;;;;;;;;;;;;5326400;28;20330;-75
2023/07/31 02:56:28;;;;;;;;;;;;;;;;;;5326303;28;20002;-75
2023/07/31 02:58:59;;;;;;;;;;;;;;;;;;5325759;28;20247;-74
2023/07/31 03:01:30;;;;;;;;;;;;;;;;;;5326087;28;19956;-74
2023/07/31 03:04:01;;;;;;;;;;;;;;;;;;5326537;28;19948;-74
2023/07/31 03:06:32;;;;;;;;;;;;;;;;;;5325170;28;19903;-74
2023/07/31 03:09:04;;;;;;;;;;;;;;;;;;5326395;28;19911;-74
2023/07/31 03:11:35;;;;;;;;;;;;;;;;;;5325383;28;19903;-74
2023/07/31 03:14:06;;;;;;;;;;;;;;;;;;5326314;28;19911;-74
2023/07/31 03:16:37;;;;;;;;;;;;;;;;;;5325839;28;19969;-74
2023/07/31 03:19:08;;;;;;;;;;;;;;;;;;5325662;28;19947;-73
2023/07/31 03:21:39;;;;;;;;;;;;;;;;;;5325718;28;19912;-74
2023/07/31 03:24:11;;;;;;;;;;;;;;;;;;5326055;28;20355;-74
2023/07/31 03:26:43;;;;;;;;;;;;;;;;;;5324932;28;19907;-73
2023/07/31 03:29:14;;;;;;;;;;;;;;;;;;5326104;28;19910;-74
2023/07/31 03:31:45;;;;;;;;;;;;;;;;;;5325178;28;19949;-74
2023/07/31 03:34:16;;;;;;;;;;;;;;;;;;5325044;28;19912;-74
2023/07/31 03:36:47;;;;;;;;;;;;;;;;;;5325432;28;19940;-74
2023/07/31 03:39:18;;;;;;;;;;;;;;;;;;5325837;28;19951;-74
2023/07/31 03:41:49;;;;;;;;;;;;;;;;;;5324415;28;20131;-74
2023/07/31 03:44:20;;;;;;;;;;;;;;;;;;5325630;28;20006;-75
2023/07/31 03:46:51;;;;;;;;;;;;;;;;;;5324164;28;19904;-74
2023/07/31 03:49:23;;;;;;;;;;;;;;;;;;5325895;28;20362;-73
2023/07/31 03:51:54;;;;;;;;;;;;;;;;;;5324956;28;19998;-74
2023/07/31 03:54:25;;;;;;;;;;;;;;;;;;5324528;28;20024;-74
2023/07/31 03:56:56;;;;;;;;;;;;;;;;;;5325208;28;20259;-74
2023/07/31 03:59:27;;;;;;;;;;;;;;;;;;5324195;28;19964;-74
2023/07/31 04:01:58;;;;;;;;;;;;;;;;;;5324352;28;19903;-75
2023/07/31 04:04:29;;;;;;;;;;;;;;;;;;5324663;28;19908;-74
2023/07/31 04:07:00;;;;;;;;;;;;;;;;;;5325110;28;19904;-74
2023/07/31 04:09:31;;;;;;;;;;;;;;;;;;5323615;28;19999;-75
2023/07/31 04:12:03;;;;;;;;;;;;;;;;;;5325172;28;20327;-73
2023/07/31 04:14:34;;;;;;;;;;;;;;;;;;5323949;28;19915;-74
2023/07/31 04:17:05;;;;;;;;;;;;;;;;;;5324487;28;19957;-74
2023/07/31 04:19:36;;;;;;;;;;;;;;;;;;5324309;28;20004;-74
2023/07/31 04:22:07;;;;;;;;;;;;;;;;;;5324175;28;19911;-74
2023/07/31 04:24:38;;;;;;;;;;;;;;;;;;5324440;28;20389;-74
2023/07/31 04:27:09;;;;;;;;;;;;;;;;;;5325029;28;19994;-74
2023/07/31 04:29:42;;;;;;;;;;;;;;;;;;5323406;28;19915;-74
2023/07/31 04:32:15;;;;;;;;;;;;;;;;;;5324641;28;19951;-74
2023/07/31 04:34:46;;;;;;;;;;;;;;;;;;5324324;28;20358;-73
2023/07/31 04:37:17;;;;;;;;;;;;;;;;;;5324012;28;19904;-73
2023/07/31 04:39:48;;;;;;;;;;;;;;;;;;5324181;28;20358;-73
2023/07/31 04:42:19;;;;;;;;;;;;;;;;;;5324858;28;19903;-73
2023/07/31 04:44:52;;;;;;;;;;;;;;;;;;5323123;28;19908;-74
2023/07/31 04:47:23;;;;;;;;;;;;;;;;;;5324013;28;20009;-75
2023/07/31 04:49:55;;;;;;;;;;;;;;;;;;5323521;28;19904;-75
2023/07/31 04:52:26;;;;;;;;;;;;;;;;;;5323803;28;19911;-75
2023/07/31 04:54:57;;;;;;;;;;;;;;;;;;5324313;28;20266;-76
2023/07/31 04:57:28;;;;;;;;;;;;;;;;;;5323559;28;19907;-75
2023/07/31 04:59:59;;;;;;;;;;;;;;;;;;5324335;28;19910;-75
2023/07/31 05:02:30;;;;;;;;;;;;;;;;;;5301066;28;19907;-74
2023/07/31 05:05:01;;;;;;;;;;;;;;;;;;5301923;28;20259;-73
2023/07/31 05:07:32;;;;;;;;;;;;;;;;;;5302234;28;20332;-73
2023/07/31 05:10:03;;;;;;;;;;;;;;;;;;5302915;28;19904;-71
2023/07/31 05:12:35;;;;;;;;;;;;;;;;;;5305091;28;20315;-72
2023/07/31 05:15:06;;;;;;;;;;;;;;;;;;5306007;28;19919;-72
2023/07/31 05:17:37;;;;;;;;;;;;;;;;;;5306425;28;20279;-73
2023/07/31 05:20:09;;;;;;;;;;;;;;;;;;5306187;28;19904;-73
2023/07/31 05:22:40;;;;;;;;;;;;;;;;;;5306343;28;19904;-73
2023/07/31 05:25:11;;;;;;;;;;;;;;;;;;5306358;28;20358;-74
2023/07/31 05:27:42;;;;;;;;;;;;;;;;;;5306488;28;19904;-71
2023/07/31 05:30:13;;;;;;;;;;;;;;;;;;5307211;28;19911;-69
2023/07/31 05:32:44;;;;;;;;;;;;;;;;;;5305443;28;19916;-69
2023/07/31 05:35:15;;;;;;;;;;;;;;;;;;5306769;28;19918;-70
2023/07/31 05:37:46;;;;;;;;;;;;;;;;;;5306337;28;19909;-70
2023/07/31 05:40:18;;;;;;;;;;;;;;;;;;5301974;28;19911;-70
2023/07/31 05:42:49;;;;;;;;;;;;;;;;;;5305839;28;19912;-70
2023/07/31 05:45:20;;;;;;;;;;;;;;;;;;5306772;28;19915;-74
2023/07/31 05:47:51;;;;;;;;;;;;;;;;;;5305219;28;19904;-73
2023/07/31 05:50:22;;;;;;;;;;;;;;;;;;5305640;28;19904;-73
2023/07/31 05:52:53;;;;;;;;;;;;;;;;;;5305590;28;19950;-72
2023/07/31 05:55:26;;;;;;;;;;;;;;;;;;5303786;28;20362;-74
2023/07/31 05:57:57;;;;;;;;;;;;;;;;;;5305791;28;19950;-75
2023/07/31 06:00:29;;;;;;;;;;;;;;;;;;5305389;28;19943;-73
2023/07/31 06:03:00;;;;;;;;;;;;;;;;;;5306398;28;19907;-73
2023/07/31 06:05:31;;;;;;;;;;;;;;;;;;5305875;28;19927;-74
2023/07/31 06:08:02;;;;;;;;;;;;;;;;;;5305623;28;19927;-73
2023/07/31 06:10:34;;;;;;;;;;;;;;;;;;5305776;28;19947;-72
2023/07/31 06:13:05;;;;;;;;;;;;;;;;;;5306293;28;19911;-74
2023/07/31 06:15:37;;;;;;;;;;;;;;;;;;5304635;28;19904;-74
2023/07/31 06:18:08;;;;;;;;;;;;;;;;;;5305811;28;19911;-73
2023/07/31 06:20:40;;;;;;;;;;;;;;;;;;5305421;28;20362;-75
2023/07/31 06:23:11;;;;;;;;;;;;;;;;;;5304524;28;19911;-74
2023/07/31 06:25:42;;;;;;;;;;;;;;;;;;5305294;28;19904;-70
2023/07/31 06:28:13;;;;;;;;;;;;;;;;;;5305370;28;19904;-71
2023/07/31 06:30:45;;;;;;;;;;;;;;;;;;5304907;28;19911;-69
2023/07/31 06:33:16;;;;;;;;;;;;;;;;;;5305315;28;19923;-68
2023/07/31 06:35:47;;;;;;;;;;;;;;;;;;5304783;28;19927;-72
2023/07/31 06:38:18;;;;;;;;;;;;;;;;;;5305726;28;19900;-72
2023/07/31 06:40:49;;;;;;;;;;;;;;;;;;5305257;28;19930;-71
2023/07/31 06:43:20;;;;;;;;;;;;;;;;;;5304998;28;19911;-74
2023/07/31 06:45:51;;;;;;;;;;;;;;;;;;5304879;28;19927;-73
2023/07/31 06:48:23;;;;;;;;;;;;;;;;;;5305512;28;20005;-73
2023/07/31 06:50:54;;;;;;;;;;;;;;;;;;5304326;28;19981;-73
2023/07/31 06:53:25;;;;;;;;;;;;;;;;;;5305423;28;19986;-73
2023/07/31 06:55:56;;;;;;;;;;;;;;;;;;5305003;28;20351;-73
2023/07/31 06:58:27;;;;;;;;;;;;;;;;;;5304504;28;19910;-72
2023/07/31 07:00:58;;;;;;;;;;;;;;;;;;5305158;28;19904;-73
2023/07/31 07:03:29;;;;;;;;;;;;;;;;;;5304102;28;19927;-73
2023/07/31 07:06:00;;;;;;;;;;;;;;;;;;5305087;28;19962;-73
2023/07/31 07:08:32;;;;;;;;;;;;;;;;;;5304542;28;20281;-73
2023/07/31 07:11:03;;;;;;;;;;;;;;;;;;5304531;28;20366;-73
2023/07/31 07:13:34;;;;;;;;;;;;;;;;;;5304424;28;19912;-73
2023/07/31 07:16:05;;;;;;;;;;;;;;;;;;5305234;28;19910;-75
2023/07/31 07:18:36;;;;;;;;;;;;;;;;;;5303877;28;19904;-75
2023/07/31 07:21:08;;;;;;;;;;;;;;;;;;5304846;28;19911;-70
2023/07/31 07:23:39;;;;;;;;;;;;;;;;;;5303951;28;19914;-70
2023/07/31 07:26:10;;;;;;;;;;;;;;;;;;5304196;28;19965;-76
2023/07/31 07:28:41;;;;;;;;;;;;;;;;;;5304208;28;19904;-74
2023/07/31 07:31:12;;;;;;;;;;;;;;;;;;5303628;28;20013;-74
2023/07/31 07:33:43;;;;;;;;;;;;;;;;;;5302572;28;19926;-74
2023/07/31 07:36:14;;;;;;;;;;;;;;;;;;5304741;28;20377;-74
2023/07/31 07:38:46;;;;;;;;;;;;;;;;;;5303459;28;19907;-74
2023/07/31 07:41:17;;;;;;;;;;;;;;;;;;5303563;28;20002;-74
2023/07/31 07:43:48;;;;;;;;;;;;;;;;;;5301833;28;19900;-74
2023/07/31 07:46:19;;;;;;;;;;;;;;;;;;5301521;28;19904;-74
2023/07/31 07:48:50;;;;;;;;;;;;;;;;;;5301771;28;20010;-74
2023/07/31 07:51:21;;;;;;;;;;;;;;;;;;5302383;28;20354;-74
2023/07/31 07:53:52;;;;;;;;;;;;;;;;;;5300786;28;19926;-74
2023/07/31 07:56:23;;;;;;;;;;;;;;;;;;5302379;28;19904;-74
2023/07/31 07:58:55;;;;;;;;;;;;;;;;;;5304110;28;19911;-73
2023/07/31 08:01:26;;;;;;;;;;;;;;;;;;5303007;28;19904;-73
2023/07/31 08:03:57;;;;;;;;;;;;;;;;;;5303953;28;20010;-72
2023/07/31 08:06:29;;;;;;;;;;;;;;;;;;5303724;28;19907;-73
2023/07/31 08:09:05;;;;;;;;;;;;;;;;;;5303189;28;19907;-73
2023/07/31 08:11:36;;;;;;;;;;;;;;;;;;5303526;28;19904;-73
2023/07/31 08:14:08;;;;;;;;;;;;;;;;;;5303176;28;19912;-73
2023/07/31 08:16:39;;;;;;;;;;;;;;;;;;5303390;28;19908;-73
2023/07/31 08:19:10;;;;;;;;;;;;;;;;;;5303885;28;19908;-73
2023/07/31 08:21:41;;;;;;;;;;;;;;;;;;5302389;28;19957;-73
2023/07/31 08:24:12;;;;;;;;;;;;;;;;;;5304003;28;20316;-72
2023/07/31 08:26:43;;;;;;;;;;;;;;;;;;5303053;28;19995;-72
2023/07/31 08:29:14;;;;;;;;;;;;;;;;;;5303092;28;19998;-72
2023/07/31 08:31:46;;;;;;;;;;;;;;;;;;5303174;28;19915;-72
2023/07/31 08:34:17;;;;;;;;;;;;;;;;;;5303625;28;20377;-73
2023/07/31 08:36:48;;;;;;;;;;;;;;;;;;5302437;28;19904;-73
2023/07/31 08:39:19;;;;;;;;;;;;;;;;;;5303553;28;19950;-73
2023/07/31 08:41:50;;;;;;;;;;;;;;;;;;5302707;28;19912;-73
2023/07/31 08:44:22;;;;;;;;;;;;;;;;;;5302945;28;19993;-73
2023/07/31 08:46:54;;;;;;;;;;;;;;;;;;5302538;28;19916;-72
2023/07/31 08:49:25;;;;;;;;;;;;;;;;;;5302638;28;19908;-73
2023/07/31 08:51:57;;;;;;;;;;;;;;;;;;5303080;28;19904;-72
2023/07/31 08:54:30;;;;;;;;;;;;;;;;;;5303082;28;19957;-73
2023/07/31 08:57:01;;;;;;;;;;;;;;;;;;5302486;28;19904;-72
2023/07/31 08:59:33;;;;;;;;;;;;;;;;;;5302716;28;19904;-72
2023/07/31 09:02:04;;;;;;;;;;;;;;;;;;5303100;28;19908;-72
2023/07/31 09:04:35;;;;;;;;;;;;;;;;;;5301951;28;20317;-72
2023/07/31 09:07:06;;;;;;;;;;;;;;;;;;5303323;28;20271;-72
2023/07/31 09:09:37;;;;;;;;;;;;;;;;;;5302599;28;19985;-73
2023/07/31 09:12:09;;;;;;;;;;;;;;;;;;5302488;28;19911;-70
2023/07/31 09:14:40;;;;;;;;;;;;;;;;;;5302460;28;19916;-73
2023/07/31 09:17:11;;;;;;;;;;;;;;;;;;5302411;28;19903;-70
2023/07/31 09:19:42;;;;;;;;;;;;;;;;;;5302585;28;20346;-72
2023/07/31 09:22:13;;;;;;;;;;;;;;;;;;5303108;28;19904;-72
2023/07/31 09:24:44;;;;;;;;;;;;;;;;;;5301910;28;20346;-73
2023/07/31 09:27:15;;;;;;;;;;;;;;;;;;5303109;28;19957;-72
2023/07/31 09:29:46;;;;;;;;;;;;;;;;;;5302445;28;19904;-73
2023/07/31 09:32:18;;;;;;;;;;;;;;;;;;5301968;28;20046;-73
2023/07/31 09:34:49;;;;;;;;;;;;;;;;;;5302469;28;20121;-72
2023/07/31 09:37:20;;;;;;;;;;;;;;;;;;5302908;28;20004;-72
2023/07/31 09:39:54;;;;;;;;;;;;;;;;;;5301814;28;19958;-73
2023/07/31 09:42:26;;;;;;;;;;;;;;;;;;5302516;28;19911;-73
2023/07/31 09:44:57;;;;;;;;;;;;;;;;;;5302493;28;19904;-74
2023/07/31 09:47:30;;;;;;;;;;;;;;;;;;5301869;28;19904;-74
2023/07/31 09:50:01;;;;;;;;;;;;;;;;;;5302917;28;20267;-73
2023/07/31 09:52:32;;;;;;;;;;;;;;;;;;5301199;28;19904;-74
2023/07/31 09:55:03;;;;;;;;;;;;;;;;;;5302709;28;19912;-72
2023/07/31 09:57:35;;;;;;;;;;;;;;;;;;5302313;28;19912;-74
2023/07/31 10:00:06;;;;;;;;;;;;;;;;;;5305671;28;19957;-73
2023/07/31 10:02:37;;;;;;;;;;;;;;;;;;5306064;28;19919;-73
2023/07/31 10:05:08;;;;;;;;;;;;;;;;;;5306222;28;19965;-72
2023/07/31 10:07:40;;;;;;;;;;;;;;;;;;5304831;28;20382;-73
2023/07/31 10:10:11;;;;;;;;;;;;;;;;;;5306182;28;19927;-73
2023/07/31 10:12:42;;;;;;;;;;;;;;;;;;5305564;28;19911;-73
2023/07/31 10:15:13;;;;;;;;;;;;;;;;;;5305150;28;19912;-74
2023/07/31 10:17:44;;;;;;;;;;;;;;;;;;5305477;28;19904;-74
2023/07/31 10:20:19;;;;;;;;;;;;;;;;;;5306135;28;19911;-73
2023/07/31 10:22:50;;;;;;;;;;;;;;;;;;5305067;28;19912;-73
2023/07/31 10:25:21;;;;;;;;;;;;;;;;;;5305992;28;19911;-72
2023/07/31 10:27:52;;;;;;;;;;;;;;;;;;5304762;28;20223;-73
2023/07/31 10:30:23;;;;;;;;;;;;;;;;;;5305400;28;19958;-73
2023/07/31 10:32:54;;;;;;;;;;;;;;;;;;5305389;28;19916;-73
2023/07/31 10:35:25;;;;;;;;;;;;;;;;;;5304619;28;19912;-72
2023/07/31 10:37:57;;;;;;;;;;;;;;;;;;5305389;28;19908;-72
2023/07/31 10:40:28;;;;;;;;;;;;;;;;;;5305053;28;19904;-72
2023/07/31 10:42:59;;;;;;;;;;;;;;;;;;5304621;28;19939;-73
2023/07/31 10:45:30;;;;;;;;;;;;;;;;;;5304781;28;19914;-73
2023/07/31 10:48:01;;;;;;;;;;;;;;;;;;5305368;28;19956;-73
2023/07/31 10:50:32;;;;;;;;;;;;;;;;;;5304193;28;19995;-74
2023/07/31 10:53:04;;;;;;;;;;;;;;;;;;5305493;28;20321;-74
2023/07/31 10:55:35;;;;;;;;;;;;;;;;;;5303939;28;19911;-73
2023/07/31 10:58:06;;;;;;;;;;;;;;;;;;5305539;28;19965;-74
2023/07/31 11:00:37;;;;;;;;;;;;;;;;;;5304780;28;19904;-73
2023/07/31 11:03:10;;;;;;;;;;;;;;;;;;5304582;28;19949;-74
2023/07/31 11:05:41;;;;;;;;;;;;;;;;;;5304596;28;19908;-73
2023/07/31 11:08:12;;;;;;;;;;;;;;;;;;5304836;28;19911;-73
2023/07/31 11:10:43;;;;;;;;;;;;;;;;;;5303801;28;19911;-72
2023/07/31 11:13:14;;;;;;;;;;;;;;;;;;5304941;28;19904;-73
2023/07/31 11:15:45;;;;;;;;;;;;;;;;;;5304572;28;19911;-72
2023/07/31 11:18:16;;;;;;;;;;;;;;;;;;5304135;28;19915;-73
2023/07/31 11:20:48;;;;;;;;;;;;;;;;;;5304085;28;20250;-73
2023/07/31 11:23:19;;;;;;;;;;;;;;;;;;5302590;28;19904;-72
2023/07/31 11:25:50;;;;;;;;;;;;;;;;;;5301489;28;20915;-72
2023/07/31 11:28:21;;;;;;;;;;;;;;;;;;5302470;28;19999;-72
2023/07/31 11:30:52;;;;;;;;;;;;;;;;;;5301305;28;20247;-73
2023/07/31 11:33:23;;;;;;;;;;;;;;;;;;5301710;28;19923;-72
2023/07/31 11:35:54;;;;;;;;;;;;;;;;;;5302094;28;19911;-72
2023/07/31 11:38:26;;;;;;;;;;;;;;;;;;5303389;28;20339;-73
2023/07/31 11:40:57;;;;;;;;;;;;;;;;;;5304177;28;19995;-72
2023/07/31 11:43:28;;;;;;;;;;;;;;;;;;5304087;28;19904;-72
2023/07/31 11:45:59;;;;;;;;;;;;;;;;;;5303462;28;19955;-72
2023/07/31 11:48:30;;;;;;;;;;;;;;;;;;5303742;28;19955;-72
2023/07/31 11:51:01;;;;;;;;;;;;;;;;;;5304321;28;20354;-72
2023/07/31 11:53:32;;;;;;;;;;;;;;;;;;5302997;28;20271;-73
2023/07/31 11:56:06;;;;;;;;;;;;;;;;;;5304070;28;19908;-72
2023/07/31 11:58:37;;;;;;;;;;;;;;;;;;5303551;28;19974;-73
2023/07/31 12:01:09;;;;;;;;;;;;;;;;;;5303396;28;19908;-73
2023/07/31 12:03:40;;;;;;;;;;;;;;;;;;5303542;28;19908;-73
2023/07/31 12:06:11;;;;;;;;;;;;;;;;;;5303351;28;19996;-73
2023/07/31 12:08:43;;;;;;;;;;;;;;;;;;5303395;28;20721;-73
2023/07/31 12:11:14;;;;;;;;;;;;;;;;;;5304085;28;19904;-73
2023/07/31 12:13:45;;;;;;;;;;;;;;;;;;5302524;28;19919;-73
2023/07/31 12:16:17;;;;;;;;;;;;;;;;;;5303774;28;20381;-70
2023/07/31 12:18:48;;;;;;;;;;;;;;;;;;5303292;28;20136;-71
2023/07/31 12:21:19;;;;;;;;;;;;;;;;;;5302254;28;20382;-74
2023/07/31 12:23:50;;;;;;;;;;;;;;;;;;5303109;28;19912;-74
2023/07/31 12:26:23;;;;;;;;;;;;;;;;;;5303907;28;19928;-74
2023/07/31 12:28:54;;;;;;;;;;;;;;;;;;5302585;28;20276;-75
2023/07/31 12:31:25;;;;;;;;;;;;;;;;;;5303153;28;19904;-73
2023/07/31 12:33:56;;;;;;;;;;;;;;;;;;5302510;28;20007;-73
2023/07/31 12:36:28;;;;;;;;;;;;;;;;;;5302852;28;20367;-73
2023/07/31 12:38:59;;;;;;;;;;;;;;;;;;5303047;28;19904;-74
2023/07/31 12:41:30;;;;;;;;;;;;;;;;;;5302265;28;20287;-74
2023/07/31 12:44:02;;;;;;;;;;;;;;;;;;5303194;28;19911;-74
2023/07/31 12:46:34;;;;;;;;;;;;;;;;;;5303113;28;19904;-74
2023/07/31 12:49:05;;;;;;;;;;;;;;;;;;5302620;28;19911;-74
2023/07/31 12:51:36;;;;;;;;;;;;;;;;;;5302750;28;20370;-74
2023/07/31 12:54:07;;;;;;;;;;;;;;;;;;5303358;28;19955;-73
2023/07/31 12:56:38;;;;;;;;;;;;;;;;;;5301878;28;19986;-74
2023/07/31 12:59:09;;;;;;;;;;;;;;;;;;5303230;28;19995;-74
2023/07/31 13:01:40;;;;;;;;;;;;;;;;;;5302699;28;20433;-74
2023/07/31 13:04:11;;;;;;;;;;;;;;;;;;5302705;28;19957;-75
2023/07/31 13:06:43;;;;;;;;;;;;;;;;;;5302450;28;19915;-73
2023/07/31 13:09:17;;;;;;;;;;;;;;;;;;5302253;28;19904;-73
2023/07/31 13:11:48;;;;;;;;;;;;;;;;;;5302572;28;19950;-73
2023/07/31 13:14:19;;;;;;;;;;;;;;;;;;5303119;28;19974;-73
2023/07/31 13:16:50;;;;;;;;;;;;;;;;;;5301797;28;19920;-72
2023/07/31 13:19:21;;;;;;;;;;;;;;;;;;5303112;28;20308;-73
2023/07/31 13:21:53;;;;;;;;;;;;;;;;;;5302658;28;19904;-73
2023/07/31 13:24:24;;;;;;;;;;;;;;;;;;5302114;28;19993;-72
2023/07/31 13:26:55;;;;;;;;;;;;;;;;;;5302811;28;19994;-72
2023/07/31 13:29:26;;;;;;;;;;;;;;;;;;5302994;28;19995;-72
2023/07/31 13:31:57;;;;;;;;;;;;;;;;;;5302745;28;20355;-74
2023/07/31 13:34:28;;;;;;;;;;;;;;;;;;5307162;28;19912;-73
2023/07/31 13:36:59;;;;;;;;;;;;;;;;;;5306660;28;19904;-73
2023/07/31 13:39:30;;;;;;;;;;;;;;;;;;5305688;28;19908;-73
2023/07/31 13:42:02;;;;;;;;;;;;;;;;;;5306913;28;19904;-73
2023/07/31 13:44:33;;;;;;;;;;;;;;;;;;5305531;28;20363;-73
2023/07/31 13:47:04;;;;;;;;;;;;;;;;;;5306980;28;19904;-72
2023/07/31 13:49:35;;;;;;;;;;;;;;;;;;5312153;28;20373;-73
2023/07/31 13:52:06;;;;;;;;;;;;;;;;;;5327204;28;19907;-72
2023/07/31 13:54:38;;;;;;;;;;;;;;;;;;5327055;28;19989;-73
2023/07/31 13:57:09;;;;;;;;;;;;;;;;;;5327726;28;19904;-72
2023/07/31 13:59:40;;;;;;;;;;;;;;;;;;5326443;28;19904;-73
2023/07/31 14:02:11;;;;;;;;;;;;;;;;;;5327787;28;19907;-72
2023/07/31 14:04:42;;;;;;;;;;;;;;;;;;5326989;28;19909;-73
2023/07/31 14:07:13;;;;;;;;;;;;;;;;;;5326909;28;19904;-73
2023/07/31 14:09:44;;;;;;;;;;;;;;;;;;5327075;28;19908;-73
2023/07/31 14:12:15;;;;;;;;;;;;;;;;;;5327802;28;20363;-74
2023/07/31 14:14:46;;;;;;;;;;;;;;;;;;5326074;28;19911;-72
2023/07/31 14:17:18;;;;;;;;;;;;;;;;;;5327311;28;19969;-72
2023/07/31 14:19:50;;;;;;;;;;;;;;;;;;5326231;28;20271;-72
2023/07/31 14:22:21;;;;;;;;;;;;;;;;;;5327337;28;19904;-72
2023/07/31 14:24:52;;;;;;;;;;;;;;;;;;5326772;28;19926;-72
2023/07/31 14:27:23;;;;;;;;;;;;;;;;;;5326184;28;19903;-73
2023/07/31 14:29:54;;;;;;;;;;;;;;;;;;5326955;28;20320;-72
2023/07/31 14:32:26;;;;;;;;;;;;;;;;;;5326482;28;19915;-72
2023/07/31 14:34:57;;;;;;;;;;;;;;;;;;5326002;28;19939;-72
2023/07/31 14:37:28;;;;;;;;;;;;;;;;;;5326634;28;20326;-73
2023/07/31 14:39:59;;;;;;;;;;;;;;;;;;5326759;28;20282;-72
2023/07/31 14:42:30;;;;;;;;;;;;;;;;;;5325483;28;19911;-72
2023/07/31 14:45:01;;;;;;;;;;;;;;;;;;5326145;28;20358;-73
2023/07/31 14:47:33;;;;;;;;;;;;;;;;;;5326291;28;20002;-73
2023/07/31 14:50:04;;;;;;;;;;;;;;;;;;5326410;28;20373;-72
2023/07/31 14:52:35;;;;;;;;;;;;;;;;;;5326190;28;19950;-72
2023/07/31 14:55:06;;;;;;;;;;;;;;;;;;5325786;28;19964;-73
2023/07/31 14:57:37;;;;;;;;;;;;;;;;;;5325890;28;19911;-72
2023/07/31 15:00:09;;;;;;;;;;;;;;;;;;5326535;28;19903;-72
2023/07/31 15:02:41;;;;;;;;;;;;;;;;;;5325117;28;19908;-73
2023/07/31 15:05:12;;;;;;;;;;;;;;;;;;5326409;28;20314;-72
2023/07/31 15:07:43;;;;;;;;;;;;;;;;;;5325666;28;20002;-72
2023/07/31 15:10:14;;;;;;;;;;;;;;;;;;5325787;28;19908;-73
2023/07/31 15:12:45;;;;;;;;;;;;;;;;;;5325853;28;19946;-72
2023/07/31 15:15:16;;;;;;;;;;;;;;;;;;5326102;28;19912;-73
2023/07/31 15:17:48;;;;;;;;;;;;;;;;;;5324328;28;19903;-73
2023/07/31 15:20:19;;;;;;;;;;;;;;;;;;5325598;28;19911;-73
2023/07/31 15:22:50;;;;;;;;;;;;;;;;;;5324527;28;19919;-73
2023/07/31 15:25:21;;;;;;;;;;;;;;;;;;5326046;28;19909;-73
2023/07/31 15:27:52;;;;;;;;;;;;;;;;;;5325211;28;19911;-72
2023/07/31 15:30:23;;;;;;;;;;;;;;;;;;5324601;28;19904;-74
2023/07/31 15:32:54;;;;;;;;;;;;;;;;;;5325087;28;19922;-74
2023/07/31 15:35:25;;;;;;;;;;;;;;;;;;5325698;28;19911;-74
2023/07/31 15:37:57;;;;;;;;;;;;;;;;;;5324818;28;19916;-76
2023/07/31 15:40:28;;;;;;;;;;;;;;;;;;5325682;28;19903;-74
2023/07/31 15:43:00;;;;;;;;;;;;;;;;;;5306770;28;19903;-75
2023/07/31 15:45:31;;;;;;;;;;;;;;;;;;5302687;28;19957;-76
2023/07/31 15:48:02;;;;;;;;;;;;;;;;;;5303642;28;19904;-75
2023/07/31 15:50:33;;;;;;;;;;;;;;;;;;5324038;28;19910;-74
2023/07/31 15:53:05;;;;;;;;;;;;;;;;;;5300887;28;20236;-74
2023/07/31 15:55:36;;;;;;;;;;;;;;;;;;5302461;28;19916;-76
2023/07/31 15:58:07;;;;;;;;;;;;;;;;;;5303705;28;19904;-77
2023/07/31 16:00:38;;;;;;;;;;;;;;;;;;5303553;28;19904;-75
2023/07/31 16:03:09;;;;;;;;;;;;;;;;;;5302330;28;19904;-78
2023/07/31 16:05:40;;;;;;;;;;;;;;;;;;5302521;28;19911;-76
2023/07/31 16:08:11;;;;;;;;;;;;;;;;;;5303849;28;19904;-74
2023/07/31 16:10:43;;;;;;;;;;;;;;;;;;5303442;28;19904;-76
2023/07/31 16:13:14;;;;;;;;;;;;;;;;;;5303083;28;20260;-75
2023/07/31 16:15:45;;;;;;;;;;;;;;;;;;5303458;28;20359;-75
2023/07/31 16:18:16;;;;;;;;;;;;;;;;;;5303841;28;19973;-75
2023/07/31 16:20:47;;;;;;;;;;;;;;;;;;5302376;28;19924;-74
2023/07/31 16:23:19;;;;;;;;;;;;;;;;;;5304073;28;19916;-74
2023/07/31 16:25:50;;;;;;;;;;;;;;;;;;5303390;28;19912;-75
2023/07/31 16:28:21;;;;;;;;;;;;;;;;;;5303137;28;19960;-73
2023/07/31 16:30:52;;;;;;;;;;;;;;;;;;5303105;28;19943;-74
2023/07/31 16:33:23;;;;;;;;;;;;;;;;;;5302340;28;20002;-72
2023/07/31 16:35:54;;;;;;;;;;;;;;;;;;5303066;28;19950;-73
2023/07/31 16:38:26;;;;;;;;;;;;;;;;;;5303264;28;19966;-74
2023/07/31 16:40:58;;;;;;;;;;;;;;;;;;5302685;28;19904;-74
2023/07/31 16:43:29;;;;;;;;;;;;;;;;;;5303042;28;19904;-74
2023/07/31 16:46:00;;;;;;;;;;;;;;;;;;5303727;28;20266;-74
2023/07/31 16:48:31;;;;;;;;;;;;;;;;;;5302104;28;19910;-75
2023/07/31 16:51:03;;;;;;;;;;;;;;;;;;5303600;28;19911;-75
2023/07/31 16:53:34;;;;;;;;;;;;;;;;;;5302850;28;20278;-74
2023/07/31 16:56:06;;;;;;;;;;;;;;;;;;5302656;28;19908;-73
2023/07/31 16:58:37;;;;;;;;;;;;;;;;;;5303038;28;19911;-74
2023/07/31 17:01:08;;;;;;;;;;;;;;;;;;5303597;28;19991;-75
2023/07/31 17:03:40;;;;;;;;;;;;;;;;;;5301835;28;19995;-75
2023/07/31 17:06:11;;;;;;;;;;;;;;;;;;5303266;28;20381;-74
2023/07/31 17:08:42;;;;;;;;;;;;;;;;;;5305814;28;19913;-74
2023/07/31 17:11:13;;;;;;;;;;;;;;;;;;5307811;28;19905;-74